Queen Elizabeth — ZCEF2 — position and weather

sailwx.info

Track history (hours):
 
Tides and Currents Weather Stations Pressure Air Temp Water Temp Dewpoint Dewpoint Depression Visibility Wind Speed Wind Dir Waves Ship Positions

Queen Elizabeth

Last reported at 2019-Jul-11 09:00 UTC. Time now 2019-Jul-16 10:06 UTC.
Position N 13°54' W 092°12'.

Length 294 m; draft 8 m.

Type: Ship. MMSI: 310625000.

Wind from 090 at 2 knots

Barometer 1014.5 mb
Air temperature 29.0 ° C
Dewpoint 24.8 ° C
Water temperature 32.0 ° C

Date/timePositionNaut miles runAvg speedWind from/ knotsBaromVisibWave heightAir tempDewpointWater temp
2019-Jul-11 09:00N 13°54' W 092°12'38620.3 090 / 21014.5 29.024.832.0
2019-Jul-10 14:00N 16°00' W 098°30'9122.9 100 / 71016.010.8 27.024.131.0
2019-Jul-10 10:00N 16°30' W 100°00'   090 / 71011.8 28.023.731.0
2019-Jul-07 03:18N 27°52' W 115°41'414.1
2019-Jul-07 02:59N 27°55' W 115°44'16014.1
2019-Jul-06 15:38N 30°24' W 116°52'914.8
2019-Jul-06 15:00N 30°33' W 116°56'1214.4
2019-Jul-06 14:09N 30°45' W 117°01'514.6
2019-Jul-06 13:48N 30°50' W 117°03'1314.4
2019-Jul-06 12:55N 31°02' W 117°08'914.3
2019-Jul-06 12:17N 31°10' W 117°11'414.2
2019-Jul-06 12:00N 31°14' W 117°13'714.2
2019-Jul-06 11:31N 31°20' W 117°16'714.2
2019-Jul-06 11:01N 31°27' W 117°18'714.0
2019-Jul-06 10:31N 31°34' W 117°21'714.0
2019-Jul-06 10:00N 31°40' W 117°24'714.2
2019-Jul-06 09:31N 31°47' W 117°27'714.3
2019-Jul-06 09:01N 31°54' W 117°30'714.2
2019-Jul-06 08:30N 32°00' W 117°33'714.3
2019-Jul-06 08:01N 32°07' W 117°35'714.2
2019-Jul-06 07:31N 32°14' W 117°38'713.7
2019-Jul-06 07:00N 32°20' W 117°41'612.9
2019-Jul-06 06:30N 32°26' W 117°43'611.8
2019-Jul-06 06:01N 32°32' W 117°46'713.3
2019-Jul-06 05:31N 32°38' W 117°49'713.9
2019-Jul-06 05:00N 32°45' W 117°51'713.8
2019-Jul-06 04:31N 32°51' W 117°54'713.7
2019-Jul-06 04:00N 32°58' W 117°57'714.4
2019-Jul-06 03:30N 33°04' W 118°00'714.6
2019-Jul-06 03:00N 33°11' W 118°03'714.1
2019-Jul-06 02:31N 33°18' W 118°06'1414.4
2019-Jul-06 01:31N 33°31' W 118°12'714.0
2019-Jul-06 01:01N 33°38' W 118°14'510.1
2019-Jul-06 00:31N 33°43' W 118°16'2 4.0
2019-Jul-06 00:01N 33°45' W 118°17'0 0.0
2019-Jul-05 23:28N 33°45' W 118°17'0 0.0
2019-Jul-05 22:58N 33°45' W 118°17'0 0.0
2019-Jul-05 22:28N 33°45' W 118°17'0 0.0
2019-Jul-05 21:58N 33°45' W 118°17'0 0.0
2019-Jul-05 21:28N 33°45' W 118°17'0 0.0
2019-Jul-05 20:58N 33°45' W 118°17'0 0.0
2019-Jul-05 20:28N 33°45' W 118°17'0 0.0
2019-Jul-05 19:58N 33°45' W 118°17'0 0.0
2019-Jul-05 19:28N 33°45' W 118°17'0 0.0
2019-Jul-05 18:58N 33°45' W 118°17'0 0.0
2019-Jul-05 18:28N 33°45' W 118°17'0 0.0
2019-Jul-05 17:58N 33°45' W 118°17'0 0.0
2019-Jul-05 17:28N 33°45' W 118°17'0 0.0
2019-Jul-05 16:58N 33°45' W 118°17'0 0.0
2019-Jul-05 16:28N 33°45' W 118°17'0 0.0
2019-Jul-05 15:58N 33°45' W 118°17'0 0.0
2019-Jul-05 15:28N 33°45' W 118°17'0 0.0
2019-Jul-05 14:58N 33°45' W 118°17'0 0.0
2019-Jul-05 14:28N 33°45' W 118°17'0 0.0
2019-Jul-05 13:58N 33°45' W 118°17'0 0.0
2019-Jul-05 13:28N 33°45' W 118°17'0 0.0
2019-Jul-05 12:58N 33°45' W 118°17'0 0.0
2019-Jul-05 12:28N 33°45' W 118°17'0 0.0
2019-Jul-05 11:58N 33°45' W 118°17'0 0.0
2019-Jul-05 11:28N 33°45' W 118°17'0 0.0
2019-Jul-05 10:58N 33°45' W 118°17'0 0.0
2019-Jul-05 10:28N 33°45' W 118°17'0 0.0
2019-Jul-05 09:58N 33°45' W 118°17'0 0.0
2019-Jul-05 09:28N 33°45' W 118°17'0 0.0
2019-Jul-05 08:58N 33°45' W 118°17'0 0.0
2019-Jul-05 08:28N 33°45' W 118°17'0 0.0
2019-Jul-05 07:58N 33°45' W 118°17'0 0.0
2019-Jul-05 07:28N 33°45' W 118°17'0 0.0
2019-Jul-05 06:58N 33°45' W 118°17'0 0.0
2019-Jul-05 06:28N 33°45' W 118°17'0 0.2
2019-Jul-05 06:00N 33°45' W 118°16'2 3.0
2019-Jul-05 05:30N 33°43' W 118°16'3 6.6
2019-Jul-05 05:00N 33°44' W 118°12'2 3.3
2019-Jul-05 04:30N 33°45' W 118°11'0 0.0
2019-Jul-05 04:00N 33°45' W 118°11'0 0.0
2019-Jul-05 03:30N 33°45' W 118°11'0 0.3
2019-Jul-05 03:00N 33°45' W 118°11'8 7.6
2019-Jul-05 02:00N 33°37' W 118°13'5 9.3
2019-Jul-05 01:30N 33°36' W 118°18'5 9.4
2019-Jul-05 01:00N 33°37' W 118°23'5 9.1
2019-Jul-05 00:30N 33°40' W 118°28'510.1
2019-Jul-05 00:00N 33°42' W 118°33'612.2
2019-Jul-04 23:30N 33°45' W 118°40'612.1
2019-Jul-04 23:00N 33°48' W 118°46'612.0
2019-Jul-04 22:30N 33°51' W 118°53'611.9
2019-Jul-04 22:00N 33°54' W 118°59'612.0
2019-Jul-04 21:30N 33°57' W 119°05'816.8
2019-Jul-04 21:00N 34°01' W 119°14'816.8
2019-Jul-04 20:30N 34°04' W 119°23'917.0
2019-Jul-04 20:00N 34°06' W 119°33'816.9
2019-Jul-04 19:31N 34°08' W 119°43'917.3
2019-Jul-04 19:00N 34°11' W 119°53'918.7
2019-Jul-04 18:30N 34°13' W 120°04'918.8
2019-Jul-04 18:00N 34°16' W 120°15'918.5
2019-Jul-04 17:30N 34°18' W 120°26'1518.3
2019-Jul-04 16:40N 34°22' W 120°44'2313.7
2019-Jul-04 15:00N 34°36' W 121°06'7622.4 310 / 191019.410.8 15.013.215.0
2019-Jul-04 11:37N 35°37' W 122°02'420.3
2019-Jul-04 11:25N 35°40' W 122°05'1320.3
2019-Jul-04 10:47N 35°50' W 122°14'1220.2
2019-Jul-04 10:10N 35°60' W 122°24'320.2
2019-Jul-04 10:00N 36°02' W 122°26'1320.3
2019-Jul-04 09:23N 36°12' W 122°36'820.2
2019-Jul-04 09:00N 36°19' W 122°41'1120.1
2019-Jul-04 08:27N 36°29' W 122°46'919.7
2019-Jul-04 07:59N 36°38' W 122°51'919.4
2019-Jul-04 07:30N 36°46' W 122°55'918.9
2019-Jul-04 07:00N 36°55' W 122°59'918.7
2019-Jul-04 06:30N 37°04' W 123°04'1019.2
2019-Jul-04 06:01N 37°12' W 123°08'1018.7
2019-Jul-04 05:30N 37°22' W 123°10'917.7
2019-Jul-04 05:00N 37°30' W 123°08'611.5
2019-Jul-04 04:30N 37°35' W 123°03'5 9.9
2019-Jul-04 04:00N 37°37' W 122°58'5 9.9
2019-Jul-04 03:30N 37°40' W 122°53'5 9.9
2019-Jul-04 03:00N 37°43' W 122°48'1111.4
2019-Jul-04 02:01N 37°47' W 122°34'815.5
2019-Jul-04 01:30N 37°49' W 122°25'1 1.8
2019-Jul-04 01:00N 37°48' W 122°24'0 0.0
2019-Jul-04 00:30N 37°48' W 122°24'0 0.0
2019-Jul-04 00:00N 37°48' W 122°24'0 0.0
2019-Jul-03 23:30N 37°48' W 122°24'0 0.0
2019-Jul-03 23:00N 37°48' W 122°24'0 0.0
2019-Jul-03 22:30N 37°48' W 122°24'0 0.0
2019-Jul-03 22:00N 37°48' W 122°24'0 0.0
2019-Jul-03 21:30N 37°48' W 122°24'0 0.0
2019-Jul-03 21:00N 37°48' W 122°24'0 0.0
2019-Jul-03 20:30N 37°48' W 122°24'0 0.0
2019-Jul-03 20:00N 37°48' W 122°24'0 0.0
2019-Jul-03 19:30N 37°48' W 122°24'0 0.0
2019-Jul-03 19:00N 37°48' W 122°24'0 0.0
2019-Jul-03 18:30N 37°48' W 122°24'0 0.0
2019-Jul-03 18:00N 37°48' W 122°24'0 0.0
2019-Jul-03 17:30N 37°48' W 122°24'0 0.0
2019-Jul-03 17:00N 37°48' W 122°24'0 0.0
2019-Jul-03 16:30N 37°48' W 122°24'0 0.0
2019-Jul-03 16:00N 37°48' W 122°24'0 0.0
2019-Jul-03 15:30N 37°48' W 122°24'0 0.0
2019-Jul-03 15:00N 37°48' W 122°24'0 0.0
2019-Jul-03 14:30N 37°48' W 122°24'0 0.0
2019-Jul-03 14:00N 37°48' W 122°24'0 0.0
2019-Jul-03 13:30N 37°48' W 122°24'0 0.1
2019-Jul-03 13:00N 37°48' W 122°24'1 1.2
2019-Jul-03 12:30N 37°49' W 122°24'4 8.7
2019-Jul-03 12:01N 37°48' W 122°30'815.0
2019-Jul-03 11:30N 37°46' W 122°39'510.1
2019-Jul-03 11:00N 37°46' W 122°45'5 9.3
2019-Jul-03 10:30N 37°48' W 122°51'5 9.7
2019-Jul-03 10:00N 37°51' W 122°56'4 8.9
2019-Jul-03 09:30N 37°53' W 123°01'4 9.0
2019-Jul-03 09:00N 37°55' W 123°06'5 9.1
2019-Jul-03 08:30N 37°57' W 123°11'5 9.1
2019-Jul-03 08:00N 38°01' W 123°15'4 9.0
2019-Jul-03 07:30N 38°04' W 123°18'510.0
2019-Jul-03 07:00N 38°08' W 123°22'714.2
2019-Jul-03 06:30N 38°12' W 123°30'715.0
2019-Jul-03 06:00N 38°16' W 123°38'714.8
2019-Jul-03 05:30N 38°20' W 123°45'714.7
2019-Jul-03 05:00N 38°25' W 123°53'714.8
2019-Jul-03 04:30N 38°30' W 123°60'714.8
2019-Jul-03 04:00N 38°35' W 124°07'814.9
2019-Jul-03 03:29N 38°41' W 124°13'14917.6
2019-Jul-02 19:00N 41°00' W 125°24'19815.3 340 / 171021.410.8 16.014.316.0
2019-Jul-02 06:00N 44°18' W 125°42'2439.8 300 / 21021.710.8 16.012.418.0
2019-Jul-02 05:24N 44°42' W 125°44'1516.2
2019-Jul-02 04:26N 44°57' W 125°42'1616.6
2019-Jul-02 03:28N 45°13' W 125°40'816.3
2019-Jul-02 03:00N 45°21' W 125°39'1816.7
2019-Jul-02 01:55N 45°39' W 125°38'1016.5
2019-Jul-02 01:19N 45°49' W 125°37'516.3
2019-Jul-02 01:00N 45°54' W 125°36'1016.2
2019-Jul-02 00:22N 46°04' W 125°35'616.3
2019-Jul-01 23:59N 46°10' W 125°34'816.3
2019-Jul-01 23:30N 46°18' W 125°33'816.3
2019-Jul-01 23:00N 46°26' W 125°32'816.1
2019-Jul-01 22:30N 46°34' W 125°32'816.0
2019-Jul-01 22:00N 46°42' W 125°30'1016.2
2019-Jul-01 21:23N 46°52' W 125°29'716.5
2019-Jul-01 20:56N 46°60' W 125°29'716.6
2019-Jul-01 20:30N 47°07' W 125°28'1016.6
2019-Jul-01 19:53N 47°17' W 125°27'716.4
2019-Jul-01 19:26N 47°24' W 125°26'816.4
2019-Jul-01 18:56N 47°32' W 125°25'1911.9
2019-Jul-01 17:21N 47°51' W 125°23'410.4
2019-Jul-01 17:00N 47°55' W 125°23'610.4
2019-Jul-01 16:26N 48°01' W 125°21'510.5
2019-Jul-01 15:58N 48°05' W 125°20'510.5
2019-Jul-01 15:27N 48°11' W 125°18'510.8
2019-Jul-01 15:00N 48°16' W 125°17'51520.8
2019-Jul-01 15:00N 48°12' W 125°12'919.0 290 / 151024.1 2.2 13.013.013.0
2019-Jul-01 14:30N 48°21' W 125°16'510.7
2019-Jul-01 14:00N 48°26' W 125°14'510.2
2019-Jul-01 13:30N 48°31' W 125°11'510.4
2019-Jul-01 13:00N 48°31' W 125°03'510.2
2019-Jul-01 12:30N 48°31' W 124°56'510.9
2019-Jul-01 12:00N 48°31' W 124°47'611.3
2019-Jul-01 11:30N 48°29' W 124°39'611.0
2019-Jul-01 11:00N 48°27' W 124°32'611.2
2019-Jul-01 10:30N 48°25' W 124°24'611.3
2019-Jul-01 10:01N 48°23' W 124°16'611.0
2019-Jul-01 09:30N 48°21' W 124°08'611.1
2019-Jul-01 09:00N 48°19' W 124°01'  
Track history (hours):
 
Tides and Currents Weather Stations Pressure Air Temp Water Temp Dewpoint Dewpoint Depression Visibility Wind Speed Wind Dir Waves Ship Positions

Queen Elizabeth

Last reported at 2019-Jul-11 09:00 UTC. Time now 2019-Jul-16 10:06 UTC.
Position N 13°54' W 092°12'.

Length 294 m; draft 8 m.

Type: Ship. MMSI: 310625000.

Wind from 090 at 2 knots

Barometer 1014.5 mb
Air temperature 29.0 ° C
Dewpoint 24.8 ° C
Water temperature 32.0 ° C

Date/timePositionNaut miles runAvg speedWind from/ knotsBaromVisibWave heightAir tempDewpointWater temp
2019-Jul-11 09:00N 13°54' W 092°12'38620.3 090 / 21014.5 29.024.832.0
2019-Jul-10 14:00N 16°00' W 098°30'9122.9 100 / 71016.010.8 27.024.131.0
2019-Jul-10 10:00N 16°30' W 100°00'   090 / 71011.8 28.023.731.0
2019-Jul-07 03:18N 27°52' W 115°41'414.1
2019-Jul-07 02:59N 27°55' W 115°44'16014.1
2019-Jul-06 15:38N 30°24' W 116°52'914.8
2019-Jul-06 15:00N 30°33' W 116°56'1214.4
2019-Jul-06 14:09N 30°45' W 117°01'514.6
2019-Jul-06 13:48N 30°50' W 117°03'1314.4
2019-Jul-06 12:55N 31°02' W 117°08'914.3
2019-Jul-06 12:17N 31°10' W 117°11'414.2
2019-Jul-06 12:00N 31°14' W 117°13'714.2
2019-Jul-06 11:31N 31°20' W 117°16'714.2
2019-Jul-06 11:01N 31°27' W 117°18'714.0
2019-Jul-06 10:31N 31°34' W 117°21'714.0
2019-Jul-06 10:00N 31°40' W 117°24'714.2
2019-Jul-06 09:31N 31°47' W 117°27'714.3
2019-Jul-06 09:01N 31°54' W 117°30'714.2
2019-Jul-06 08:30N 32°00' W 117°33'714.3
2019-Jul-06 08:01N 32°07' W 117°35'714.2
2019-Jul-06 07:31N 32°14' W 117°38'713.7
2019-Jul-06 07:00N 32°20' W 117°41'612.9
2019-Jul-06 06:30N 32°26' W 117°43'611.8
2019-Jul-06 06:01N 32°32' W 117°46'713.3
2019-Jul-06 05:31N 32°38' W 117°49'713.9
2019-Jul-06 05:00N 32°45' W 117°51'713.8
2019-Jul-06 04:31N 32°51' W 117°54'713.7
2019-Jul-06 04:00N 32°58' W 117°57'714.4
2019-Jul-06 03:30N 33°04' W 118°00'714.6
2019-Jul-06 03:00N 33°11' W 118°03'714.1
2019-Jul-06 02:31N 33°18' W 118°06'1414.4
2019-Jul-06 01:31N 33°31' W 118°12'714.0
2019-Jul-06 01:01N 33°38' W 118°14'510.1
2019-Jul-06 00:31N 33°43' W 118°16'2 4.0
2019-Jul-06 00:01N 33°45' W 118°17'0 0.0
2019-Jul-05 23:28N 33°45' W 118°17'0 0.0
2019-Jul-05 22:58N 33°45' W 118°17'0 0.0
2019-Jul-05 22:28N 33°45' W 118°17'0 0.0
2019-Jul-05 21:58N 33°45' W 118°17'0 0.0
2019-Jul-05 21:28N 33°45' W 118°17'0 0.0
2019-Jul-05 20:58N 33°45' W 118°17'0 0.0
2019-Jul-05 20:28N 33°45' W 118°17'0 0.0
2019-Jul-05 19:58N 33°45' W 118°17'0 0.0
2019-Jul-05 19:28N 33°45' W 118°17'0 0.0
2019-Jul-05 18:58N 33°45' W 118°17'0 0.0
2019-Jul-05 18:28N 33°45' W 118°17'0 0.0
2019-Jul-05 17:58N 33°45' W 118°17'0 0.0
2019-Jul-05 17:28N 33°45' W 118°17'0 0.0
2019-Jul-05 16:58N 33°45' W 118°17'0 0.0
2019-Jul-05 16:28N 33°45' W 118°17'0 0.0
2019-Jul-05 15:58N 33°45' W 118°17'0 0.0
2019-Jul-05 15:28N 33°45' W 118°17'0 0.0
2019-Jul-05 14:58N 33°45' W 118°17'0 0.0
2019-Jul-05 14:28N 33°45' W 118°17'0 0.0
2019-Jul-05 13:58N 33°45' W 118°17'0 0.0
2019-Jul-05 13:28N 33°45' W 118°17'0 0.0
2019-Jul-05 12:58N 33°45' W 118°17'0 0.0
2019-Jul-05 12:28N 33°45' W 118°17'0 0.0
2019-Jul-05 11:58N 33°45' W 118°17'0 0.0
2019-Jul-05 11:28N 33°45' W 118°17'0 0.0
2019-Jul-05 10:58N 33°45' W 118°17'0 0.0
2019-Jul-05 10:28N 33°45' W 118°17'0 0.0
2019-Jul-05 09:58N 33°45' W 118°17'0 0.0
2019-Jul-05 09:28N 33°45' W 118°17'0 0.0
2019-Jul-05 08:58N 33°45' W 118°17'0 0.0
2019-Jul-05 08:28N 33°45' W 118°17'0 0.0
2019-Jul-05 07:58N 33°45' W 118°17'0 0.0
2019-Jul-05 07:28N 33°45' W 118°17'0 0.0
2019-Jul-05 06:58N 33°45' W 118°17'0 0.0
2019-Jul-05 06:28N 33°45' W 118°17'0 0.2
2019-Jul-05 06:00N 33°45' W 118°16'2 3.0
2019-Jul-05 05:30N 33°43' W 118°16'3 6.6
2019-Jul-05 05:00N 33°44' W 118°12'2 3.3
2019-Jul-05 04:30N 33°45' W 118°11'0 0.0
2019-Jul-05 04:00N 33°45' W 118°11'0 0.0
2019-Jul-05 03:30N 33°45' W 118°11'0 0.3
2019-Jul-05 03:00N 33°45' W 118°11'8 7.6
2019-Jul-05 02:00N 33°37' W 118°13'5 9.3
2019-Jul-05 01:30N 33°36' W 118°18'5 9.4
2019-Jul-05 01:00N 33°37' W 118°23'5 9.1
2019-Jul-05 00:30N 33°40' W 118°28'510.1
2019-Jul-05 00:00N 33°42' W 118°33'612.2
2019-Jul-04 23:30N 33°45' W 118°40'612.1
2019-Jul-04 23:00N 33°48' W 118°46'612.0
2019-Jul-04 22:30N 33°51' W 118°53'611.9
2019-Jul-04 22:00N 33°54' W 118°59'612.0
2019-Jul-04 21:30N 33°57' W 119°05'816.8
2019-Jul-04 21:00N 34°01' W 119°14'816.8
2019-Jul-04 20:30N 34°04' W 119°23'917.0
2019-Jul-04 20:00N 34°06' W 119°33'816.9
2019-Jul-04 19:31N 34°08' W 119°43'917.3
2019-Jul-04 19:00N 34°11' W 119°53'918.7
2019-Jul-04 18:30N 34°13' W 120°04'918.8
2019-Jul-04 18:00N 34°16' W 120°15'918.5
2019-Jul-04 17:30N 34°18' W 120°26'1518.3
2019-Jul-04 16:40N 34°22' W 120°44'2313.7
2019-Jul-04 15:00N 34°36' W 121°06'7622.4 310 / 191019.410.8 15.013.215.0
2019-Jul-04 11:37N 35°37' W 122°02'420.3
2019-Jul-04 11:25N 35°40' W 122°05'1320.3
2019-Jul-04 10:47N 35°50' W 122°14'1220.2
2019-Jul-04 10:10N 35°60' W 122°24'320.2
2019-Jul-04 10:00N 36°02' W 122°26'1320.3
2019-Jul-04 09:23N 36°12' W 122°36'820.2
2019-Jul-04 09:00N 36°19' W 122°41'1120.1
2019-Jul-04 08:27N 36°29' W 122°46'919.7
2019-Jul-04 07:59N 36°38' W 122°51'919.4
2019-Jul-04 07:30N 36°46' W 122°55'918.9
2019-Jul-04 07:00N 36°55' W 122°59'918.7
2019-Jul-04 06:30N 37°04' W 123°04'1019.2
2019-Jul-04 06:01N 37°12' W 123°08'1018.7
2019-Jul-04 05:30N 37°22' W 123°10'917.7
2019-Jul-04 05:00N 37°30' W 123°08'611.5
2019-Jul-04 04:30N 37°35' W 123°03'5 9.9
2019-Jul-04 04:00N 37°37' W 122°58'5 9.9
2019-Jul-04 03:30N 37°40' W 122°53'5 9.9
2019-Jul-04 03:00N 37°43' W 122°48'1111.4
2019-Jul-04 02:01N 37°47' W 122°34'815.5
2019-Jul-04 01:30N 37°49' W 122°25'1 1.8
2019-Jul-04 01:00N 37°48' W 122°24'0 0.0
2019-Jul-04 00:30N 37°48' W 122°24'0 0.0
2019-Jul-04 00:00N 37°48' W 122°24'0 0.0
2019-Jul-03 23:30N 37°48' W 122°24'0 0.0
2019-Jul-03 23:00N 37°48' W 122°24'0 0.0
2019-Jul-03 22:30N 37°48' W 122°24'0 0.0
2019-Jul-03 22:00N 37°48' W 122°24'0 0.0
2019-Jul-03 21:30N 37°48' W 122°24'0 0.0
2019-Jul-03 21:00N 37°48' W 122°24'0 0.0
2019-Jul-03 20:30N 37°48' W 122°24'0 0.0
2019-Jul-03 20:00N 37°48' W 122°24'0 0.0
2019-Jul-03 19:30N 37°48' W 122°24'0 0.0
2019-Jul-03 19:00N 37°48' W 122°24'0 0.0
2019-Jul-03 18:30N 37°48' W 122°24'0 0.0
2019-Jul-03 18:00N 37°48' W 122°24'0 0.0
2019-Jul-03 17:30N 37°48' W 122°24'0 0.0
2019-Jul-03 17:00N 37°48' W 122°24'0 0.0
2019-Jul-03 16:30N 37°48' W 122°24'0 0.0
2019-Jul-03 16:00N 37°48' W 122°24'0 0.0
2019-Jul-03 15:30N 37°48' W 122°24'0 0.0
2019-Jul-03 15:00N 37°48' W 122°24'0 0.0
2019-Jul-03 14:30N 37°48' W 122°24'0 0.0
2019-Jul-03 14:00N 37°48' W 122°24'0 0.0
2019-Jul-03 13:30N 37°48' W 122°24'0 0.1
2019-Jul-03 13:00N 37°48' W 122°24'1 1.2
2019-Jul-03 12:30N 37°49' W 122°24'4 8.7
2019-Jul-03 12:01N 37°48' W 122°30'815.0
2019-Jul-03 11:30N 37°46' W 122°39'510.1
2019-Jul-03 11:00N 37°46' W 122°45'5 9.3
2019-Jul-03 10:30N 37°48' W 122°51'5 9.7
2019-Jul-03 10:00N 37°51' W 122°56'4 8.9
2019-Jul-03 09:30N 37°53' W 123°01'4 9.0
2019-Jul-03 09:00N 37°55' W 123°06'5 9.1
2019-Jul-03 08:30N 37°57' W 123°11'5 9.1
2019-Jul-03 08:00N 38°01' W 123°15'4 9.0
2019-Jul-03 07:30N 38°04' W 123°18'510.0
2019-Jul-03 07:00N 38°08' W 123°22'714.2
2019-Jul-03 06:30N 38°12' W 123°30'715.0
2019-Jul-03 06:00N 38°16' W 123°38'714.8
2019-Jul-03 05:30N 38°20' W 123°45'714.7
2019-Jul-03 05:00N 38°25' W 123°53'714.8
2019-Jul-03 04:30N 38°30' W 123°60'714.8
2019-Jul-03 04:00N 38°35' W 124°07'814.9
2019-Jul-03 03:29N 38°41' W 124°13'14917.6
2019-Jul-02 19:00N 41°00' W 125°24'19815.3 340 / 171021.410.8 16.014.316.0
2019-Jul-02 06:00N 44°18' W 125°42'2439.8 300 / 21021.710.8 16.012.418.0
2019-Jul-02 05:24N 44°42' W 125°44'1516.2
2019-Jul-02 04:26N 44°57' W 125°42'1616.6
2019-Jul-02 03:28N 45°13' W 125°40'816.3
2019-Jul-02 03:00N 45°21' W 125°39'1816.7
2019-Jul-02 01:55N 45°39' W 125°38'1016.5
2019-Jul-02 01:19N 45°49' W 125°37'516.3
2019-Jul-02 01:00N 45°54' W 125°36'1016.2
2019-Jul-02 00:22N 46°04' W 125°35'616.3
2019-Jul-01 23:59N 46°10' W 125°34'816.3
2019-Jul-01 23:30N 46°18' W 125°33'816.3
2019-Jul-01 23:00N 46°26' W 125°32'816.1
2019-Jul-01 22:30N 46°34' W 125°32'816.0
2019-Jul-01 22:00N 46°42' W 125°30'1016.2
2019-Jul-01 21:23N 46°52' W 125°29'716.5
2019-Jul-01 20:56N 46°60' W 125°29'716.6
2019-Jul-01 20:30N 47°07' W 125°28'1016.6
2019-Jul-01 19:53N 47°17' W 125°27'716.4
2019-Jul-01 19:26N 47°24' W 125°26'816.4
2019-Jul-01 18:56N 47°32' W 125°25'1911.9
2019-Jul-01 17:21N 47°51' W 125°23'410.4
2019-Jul-01 17:00N 47°55' W 125°23'610.4
2019-Jul-01 16:26N 48°01' W 125°21'510.5
2019-Jul-01 15:58N 48°05' W 125°20'510.5
2019-Jul-01 15:27N 48°11' W 125°18'510.8
2019-Jul-01 15:00N 48°16' W 125°17'51520.8
2019-Jul-01 15:00N 48°12' W 125°12'919.0 290 / 151024.1 2.2 13.013.013.0
2019-Jul-01 14:30N 48°21' W 125°16'510.7
2019-Jul-01 14:00N 48°26' W 125°14'510.2
2019-Jul-01 13:30N 48°31' W 125°11'510.4
2019-Jul-01 13:00N 48°31' W 125°03'510.2
2019-Jul-01 12:30N 48°31' W 124°56'510.9
2019-Jul-01 12:00N 48°31' W 124°47'611.3
2019-Jul-01 11:30N 48°29' W 124°39'611.0
2019-Jul-01 11:00N 48°27' W 124°32'611.2
2019-Jul-01 10:30N 48°25' W 124°24'611.3
2019-Jul-01 10:01N 48°23' W 124°16'611.0
2019-Jul-01 09:30N 48°21' W 124°08'611.1
2019-Jul-01 09:00N 48°19' W 124°01'  

Dump ship's entire track history